createdAt,value
2023-05-10T00:01:43.262Z,10.70
2023-05-10T00:04:15.413Z,10.60
2023-05-10T00:06:48.734Z,10.47
2023-05-10T00:09:16.933Z,10.42
2023-05-10T00:11:46.353Z,10.37
2023-05-10T00:14:16.145Z,10.33
2023-05-10T00:16:46.770Z,10.26
2023-05-10T00:19:17.037Z,10.23
2023-05-10T00:21:46.169Z,10.13
2023-05-10T00:24:17.703Z,10.03
2023-05-10T00:26:46.347Z,9.92
2023-05-10T00:29:16.740Z,9.88
2023-05-10T00:31:44.969Z,9.91
2023-05-10T00:34:13.355Z,9.85
2023-05-10T00:36:44.982Z,9.81
2023-05-10T00:39:13.614Z,9.88
2023-05-10T00:41:48.516Z,9.95
2023-05-10T00:44:18.259Z,10.06
2023-05-10T00:46:50.550Z,10.09
2023-05-10T00:49:21.801Z,10.10
2023-05-10T00:51:52.559Z,10.12
2023-05-10T00:54:26.204Z,10.06
2023-05-10T00:56:55.108Z,10.12
2023-05-10T00:59:23.624Z,10.01
2023-05-10T01:01:55.057Z,9.96
2023-05-10T01:04:27.008Z,10.06
2023-05-10T01:06:57.380Z,10.08
2023-05-10T01:09:28.890Z,10.06
2023-05-10T01:12:04.778Z,10.12
2023-05-10T01:14:33.150Z,10.17
2023-05-10T01:17:04.883Z,10.16
2023-05-10T01:19:36.077Z,10.30
2023-05-10T01:22:16.269Z,10.36
2023-05-10T01:25:13.545Z,10.36
2023-05-10T01:27:58.229Z,10.33
2023-05-10T01:30:55.410Z,10.40
2023-05-10T01:33:31.357Z,10.49
2023-05-10T01:36:07.732Z,10.47
2023-05-10T01:38:51.261Z,10.64
2023-05-10T01:41:23.052Z,10.60
2023-05-10T01:43:58.808Z,10.71
2023-05-10T01:46:33.726Z,10.81
2023-05-10T01:49:07.046Z,10.97
2023-05-10T01:51:41.864Z,11.01
2023-05-10T01:54:17.039Z,11.07
2023-05-10T01:56:50.196Z,11.18
2023-05-10T01:59:21.432Z,11.15
2023-05-10T02:01:51.338Z,11.16
2023-05-10T02:04:27.844Z,11.14
2023-05-10T02:06:57.673Z,11.12
2023-05-10T02:09:29.425Z,11.21
2023-05-10T02:12:00.118Z,11.16
2023-05-10T02:14:32.473Z,11.19
2023-05-10T02:17:03.221Z,11.29
2023-05-10T02:19:36.091Z,11.33
2023-05-10T02:22:09.445Z,11.36
2023-05-10T02:24:44.215Z,11.42
2023-05-10T02:27:14.764Z,11.52
2023-05-10T02:29:44.119Z,11.66
2023-05-10T02:32:14.716Z,11.59
2023-05-10T02:34:53.148Z,11.63
2023-05-10T02:37:30.928Z,11.62
2023-05-10T02:40:01.080Z,11.70
2023-05-10T02:42:38.025Z,11.69
2023-05-10T02:45:13.072Z,11.71
2023-05-10T02:47:41.715Z,11.59
2023-05-10T02:50:14.164Z,11.59
2023-05-10T02:52:49.548Z,11.63
2023-05-10T02:55:27.790Z,11.70
2023-05-10T02:58:01.129Z,11.66
2023-05-10T03:00:31.607Z,11.69
2023-05-10T03:03:00.576Z,11.63
2023-05-10T03:05:30.777Z,11.56
2023-05-10T03:08:08.882Z,11.50
2023-05-10T03:10:53.004Z,11.46
2023-05-10T03:13:36.418Z,11.32
2023-05-10T03:16:12.104Z,11.36
2023-05-10T03:18:46.594Z,11.19
2023-05-10T03:21:21.123Z,11.14
2023-05-10T03:23:55.212Z,11.02
2023-05-10T03:26:28.436Z,11.09
2023-05-10T03:29:01.899Z,11.02
2023-05-10T03:31:33.896Z,10.95
2023-05-10T03:34:07.251Z,10.97
2023-05-10T03:36:38.244Z,10.90
2023-05-10T03:39:09.382Z,10.90
2023-05-10T03:41:42.424Z,10.95
2023-05-10T03:44:11.675Z,10.95
2023-05-10T03:46:40.313Z,10.98
2023-05-10T03:49:09.802Z,11.02
2023-05-10T03:51:39.962Z,11.01
2023-05-10T03:54:09.238Z,10.97
2023-05-10T03:56:37.737Z,10.97
2023-05-10T03:59:09.856Z,10.98
2023-05-10T04:01:41.189Z,10.94
2023-05-10T04:04:09.729Z,10.84
2023-05-10T04:06:41.856Z,10.84
2023-05-10T04:09:10.188Z,10.97
2023-05-10T04:11:40.001Z,10.95
2023-05-10T04:14:08.719Z,11.00
2023-05-10T04:16:37.283Z,11.09
2023-05-10T04:19:07.451Z,11.00
2023-05-10T04:21:35.840Z,10.98
2023-05-10T04:24:09.090Z,10.91
2023-05-10T04:26:37.389Z,10.81
2023-05-10T04:29:05.746Z,10.84
2023-05-10T04:31:34.391Z,10.82
2023-05-10T04:34:03.321Z,10.78
2023-05-10T04:36:34.660Z,10.84
2023-05-10T04:39:03.944Z,10.85
2023-05-10T04:41:36.773Z,10.92
2023-05-10T04:44:08.452Z,10.90
2023-05-10T04:46:43.853Z,10.90
2023-05-10T04:49:16.286Z,10.85
2023-05-10T04:51:51.235Z,10.73
2023-05-10T04:54:20.098Z,10.74
2023-05-10T04:56:49.684Z,10.71
2023-05-10T04:59:18.733Z,10.70
2023-05-10T05:01:49.700Z,10.64
2023-05-10T05:04:35.965Z,10.64
2023-05-10T05:07:05.316Z,10.61
2023-05-10T05:09:35.227Z,10.73
2023-05-10T05:12:08.674Z,10.75
2023-05-10T05:14:44.727Z,10.81
2023-05-10T05:17:15.770Z,11.16
2023-05-10T05:19:46.596Z,11.28
2023-05-10T05:22:15.916Z,11.39
2023-05-10T05:25:00.347Z,11.38
2023-05-10T05:27:32.835Z,11.57
2023-05-10T05:30:04.745Z,11.76
2023-05-10T05:32:34.197Z,11.91
2023-05-10T05:35:07.244Z,11.95
2023-05-10T05:37:36.329Z,12.07
2023-05-10T05:40:08.259Z,12.20
2023-05-10T05:42:40.368Z,12.29
2023-05-10T05:45:15.228Z,12.46
2023-05-10T05:47:56.033Z,12.44
2023-05-10T05:50:27.256Z,12.59
2023-05-10T05:52:57.299Z,12.50
2023-05-10T05:55:26.944Z,12.57
2023-05-10T05:58:00.373Z,12.76
2023-05-10T06:00:28.830Z,12.79
2023-05-10T06:02:57.977Z,12.82
2023-05-10T06:05:28.334Z,13.08
2023-05-10T06:07:57.766Z,13.08
2023-05-10T06:10:27.648Z,13.07
2023-05-10T06:13:03.745Z,13.18
2023-05-10T06:15:35.722Z,13.07
2023-05-10T06:18:06.159Z,13.18
2023-05-10T06:20:34.934Z,13.35
2023-05-10T06:23:03.112Z,13.14
2023-05-10T06:25:31.603Z,13.48
2023-05-10T06:28:07.318Z,13.35
2023-05-10T06:30:36.023Z,13.50
2023-05-10T06:33:05.278Z,13.62
2023-05-10T06:35:35.720Z,13.62
2023-05-10T06:38:06.611Z,13.54
2023-05-10T06:40:36.426Z,13.72
2023-05-10T06:43:06.847Z,13.73
2023-05-10T06:45:37.076Z,13.99
2023-05-10T06:48:08.112Z,14.05
2023-05-10T06:50:36.827Z,14.37
2023-05-10T06:53:25.685Z,14.58
2023-05-10T06:56:00.123Z,14.47
2023-05-10T06:58:31.378Z,14.52
2023-05-10T07:01:05.266Z,14.48
2023-05-10T07:03:34.355Z,14.71
2023-05-10T07:06:06.332Z,14.86
2023-05-10T07:08:34.887Z,14.88
2023-05-10T07:11:05.794Z,14.51
2023-05-10T07:13:39.581Z,14.56
2023-05-10T07:16:12.297Z,14.24
2023-05-10T07:18:41.363Z,14.57
2023-05-10T07:21:10.108Z,14.57
2023-05-10T07:23:38.655Z,14.84
2023-05-10T07:26:13.026Z,14.85
2023-05-10T07:28:45.455Z,14.78
2023-05-10T07:31:14.263Z,15.05
2023-05-10T07:33:48.655Z,15.47
2023-05-10T07:36:19.046Z,15.61
2023-05-10T07:38:48.972Z,15.74
2023-05-10T07:41:17.237Z,15.71
2023-05-10T07:43:47.667Z,16.00
2023-05-10T07:46:16.239Z,15.98
2023-05-10T07:48:45.972Z,15.88
2023-05-10T07:51:15.806Z,15.84
2023-05-10T07:53:45.116Z,15.67
2023-05-10T07:56:28.442Z,16.13
2023-05-10T07:59:01.510Z,16.26
2023-05-10T08:01:38.642Z,16.25
2023-05-10T08:04:08.510Z,15.78
2023-05-10T08:06:37.105Z,16.02
2023-05-10T08:09:07.011Z,16.74
2023-05-10T08:11:35.457Z,17.14
2023-05-10T08:14:11.817Z,16.73
2023-05-10T08:16:48.041Z,16.92
2023-05-10T08:19:20.177Z,16.53
2023-05-10T08:21:49.029Z,16.02
2023-05-10T08:24:21.011Z,15.85
2023-05-10T08:26:50.248Z,16.16
2023-05-10T08:29:21.998Z,15.97
2023-05-10T08:31:50.909Z,16.26
2023-05-10T08:34:19.712Z,16.69
2023-05-10T08:36:47.829Z,16.42
2023-05-10T08:39:23.376Z,16.26
2023-05-10T08:42:04.438Z,16.30
2023-05-10T08:44:38.339Z,16.73
2023-05-10T08:47:10.760Z,16.53
2023-05-10T08:49:40.114Z,17.07
2023-05-10T08:52:09.641Z,17.38
2023-05-10T08:54:39.024Z,16.97
2023-05-10T08:57:08.333Z,17.32
2023-05-10T08:59:40.553Z,17.34
2023-05-10T09:02:17.226Z,17.67
2023-05-10T09:04:47.994Z,17.77
2023-05-10T09:07:18.037Z,18.20
2023-05-10T09:09:47.523Z,17.31
2023-05-10T09:12:19.202Z,17.21
2023-05-10T09:14:49.313Z,17.24
2023-05-10T09:17:18.540Z,17.46
2023-05-10T09:19:50.336Z,17.18
2023-05-10T09:22:23.233Z,16.92
2023-05-10T09:25:05.977Z,17.76
2023-05-10T09:27:34.581Z,17.98
2023-05-10T09:30:05.328Z,17.84
2023-05-10T09:32:40.927Z,17.57
2023-05-10T09:35:15.154Z,17.17
2023-05-10T09:37:45.876Z,17.66
2023-05-10T09:40:19.274Z,18.73
2023-05-10T09:42:54.888Z,19.17
2023-05-10T09:45:27.128Z,19.02
2023-05-10T09:47:56.126Z,19.13
2023-05-10T09:50:29.716Z,18.99
2023-05-10T09:53:04.458Z,19.14
2023-05-10T09:55:42.220Z,18.61
2023-05-10T09:58:12.561Z,17.94
2023-05-10T10:00:44.209Z,17.86
2023-05-10T10:03:17.498Z,18.32
2023-05-10T10:05:53.727Z,19.37
2023-05-10T10:08:26.405Z,19.72
2023-05-10T10:11:02.403Z,19.31
2023-05-10T10:13:33.440Z,19.43
2023-05-10T10:16:05.655Z,19.69
2023-05-10T10:18:41.220Z,18.88
2023-05-10T10:21:13.383Z,18.18
2023-05-10T10:23:43.042Z,18.04
2023-05-10T10:26:23.068Z,18.48
2023-05-10T10:29:02.571Z,19.54
2023-05-10T10:31:41.495Z,20.16
2023-05-10T10:34:14.373Z,20.65
2023-05-10T10:36:48.084Z,21.30
2023-05-10T10:39:17.651Z,20.74
2023-05-10T10:41:57.471Z,20.05
2023-05-10T10:44:43.117Z,19.74
2023-05-10T10:47:29.219Z,19.37
2023-05-10T10:50:11.549Z,19.62
2023-05-10T10:52:41.610Z,20.26
2023-05-10T10:55:11.891Z,19.55
2023-05-10T10:57:48.953Z,19.99
2023-05-10T11:00:25.871Z,19.67
2023-05-10T11:03:01.012Z,19.64
2023-05-10T11:05:47.654Z,19.02
2023-05-10T11:08:18.590Z,18.35
2023-05-10T11:11:11.059Z,18.49
2023-05-10T11:13:44.206Z,18.92
2023-05-10T11:16:20.436Z,19.17
2023-05-10T11:19:07.921Z,18.83
2023-05-10T11:21:51.801Z,19.27
2023-05-10T11:24:26.650Z,19.00
2023-05-10T11:26:56.856Z,19.59
2023-05-10T11:29:31.235Z,20.77
2023-05-10T11:32:09.425Z,21.35
2023-05-10T11:34:44.202Z,21.78
2023-05-10T11:37:12.732Z,20.74
2023-05-10T11:39:41.753Z,20.34
2023-05-10T11:42:12.555Z,19.92
2023-05-10T11:44:43.355Z,19.64
2023-05-10T11:47:17.253Z,19.41
2023-05-10T11:49:47.902Z,19.19
2023-05-10T11:52:16.948Z,19.24
2023-05-10T11:54:54.272Z,19.37
2023-05-10T11:57:23.329Z,19.64
2023-05-10T11:59:57.311Z,19.23
2023-05-10T12:02:26.061Z,19.44
2023-05-10T12:05:03.303Z,20.22
2023-05-10T12:07:38.886Z,20.44
2023-05-10T12:10:19.267Z,19.61
2023-05-10T12:12:50.431Z,19.06
2023-05-10T12:15:21.655Z,18.88
2023-05-10T12:17:51.964Z,18.79
2023-05-10T12:20:33.042Z,19.67
2023-05-10T12:23:03.117Z,19.69
2023-05-10T12:25:38.382Z,19.46
2023-05-10T12:28:09.607Z,19.41
2023-05-10T12:30:41.681Z,19.34
2023-05-10T12:33:13.378Z,20.16
2023-05-10T12:35:52.953Z,20.00
2023-05-10T12:38:30.380Z,19.74
2023-05-10T12:41:00.579Z,19.53
2023-05-10T12:43:32.463Z,19.38
2023-05-10T12:46:01.506Z,19.61
2023-05-10T12:48:35.176Z,19.57
2023-05-10T12:51:10.837Z,19.71
2023-05-10T12:53:44.575Z,20.10
2023-05-10T12:56:14.058Z,20.00
2023-05-10T12:58:43.715Z,19.82
2023-05-10T13:01:15.170Z,20.08
2023-05-10T13:03:44.141Z,20.20
2023-05-10T13:06:16.234Z,20.30
2023-05-10T13:08:44.655Z,20.27
2023-05-10T13:11:17.927Z,20.13
2023-05-10T13:13:50.098Z,20.04
2023-05-10T13:16:21.449Z,20.36
2023-05-10T13:18:49.931Z,20.12
2023-05-10T13:21:23.783Z,20.12
2023-05-10T13:23:52.648Z,20.15
2023-05-10T13:26:22.723Z,20.15
2023-05-10T13:28:52.873Z,19.81
2023-05-10T13:31:23.891Z,19.61
2023-05-10T13:33:55.342Z,19.69
2023-05-10T13:36:25.258Z,19.89
2023-05-10T13:38:57.034Z,20.12
2023-05-10T13:41:28.827Z,20.40
2023-05-10T13:44:03.608Z,20.46
2023-05-10T13:46:33.406Z,20.16
2023-05-10T13:49:01.944Z,20.00
2023-05-10T13:51:32.768Z,19.88
2023-05-10T13:54:01.768Z,20.10
2023-05-10T13:56:30.245Z,19.89
2023-05-10T13:58:59.763Z,19.65
2023-05-10T14:01:28.378Z,19.47
2023-05-10T14:04:00.806Z,19.51
2023-05-10T14:06:32.182Z,19.67
2023-05-10T14:09:01.187Z,19.97
2023-05-10T14:11:29.848Z,20.77
2023-05-10T14:13:58.688Z,21.01
2023-05-10T14:16:28.758Z,21.49
2023-05-10T14:18:57.556Z,21.47
2023-05-10T14:21:25.971Z,21.28
2023-05-10T14:23:57.209Z,21.29
2023-05-10T14:26:34.158Z,20.92
2023-05-10T14:29:02.610Z,20.65
2023-05-10T14:31:31.462Z,20.84
2023-05-10T14:34:02.973Z,20.84
2023-05-10T14:36:34.075Z,20.30
2023-05-10T14:39:04.265Z,19.90
2023-05-10T14:41:34.971Z,20.15
2023-05-10T14:44:07.908Z,20.51
2023-05-10T14:46:38.051Z,20.12
2023-05-10T14:49:07.484Z,19.65
2023-05-10T14:51:38.187Z,20.00
2023-05-10T14:54:08.296Z,19.86
2023-05-10T14:56:46.767Z,19.74
2023-05-10T14:59:18.733Z,20.10
2023-05-10T15:01:48.261Z,20.60
2023-05-10T15:04:17.503Z,20.84
2023-05-10T15:06:51.166Z,21.13
2023-05-10T15:09:21.177Z,20.67
2023-05-10T15:11:51.318Z,20.46
2023-05-10T15:14:20.236Z,20.71
2023-05-10T15:16:49.434Z,20.46
2023-05-10T15:19:17.951Z,20.19
2023-05-10T15:21:46.615Z,20.05
2023-05-10T15:24:21.305Z,20.17
2023-05-10T15:26:50.777Z,20.17
2023-05-10T15:29:21.716Z,20.27
2023-05-10T15:31:56.869Z,20.32
2023-05-10T15:34:29.130Z,19.99
2023-05-10T15:37:00.284Z,19.92
2023-05-10T15:39:37.756Z,19.90
2023-05-10T15:42:09.596Z,20.12
2023-05-10T15:44:40.284Z,20.08
2023-05-10T15:47:09.007Z,19.75
2023-05-10T15:49:37.654Z,19.58
2023-05-10T15:52:07.299Z,19.07
2023-05-10T15:54:39.926Z,18.93
2023-05-10T15:57:12.410Z,18.88
2023-05-10T15:59:41.432Z,18.95
2023-05-10T16:02:11.036Z,18.73
2023-05-10T16:04:40.271Z,18.95
2023-05-10T16:07:11.186Z,18.86
2023-05-10T16:09:43.553Z,18.80
2023-05-10T16:12:12.226Z,18.62
2023-05-10T16:14:43.504Z,18.48
2023-05-10T16:18:24.557Z,18.34
2023-05-10T16:20:51.767Z,18.20
2023-05-10T16:23:24.729Z,18.21
2023-05-10T16:25:54.962Z,18.04
2023-05-10T16:28:23.670Z,17.96
2023-05-10T16:30:57.548Z,18.03
2023-05-10T16:33:26.069Z,17.93
2023-05-10T16:35:55.745Z,17.79
2023-05-10T16:38:24.791Z,17.69
2023-05-10T16:40:55.457Z,17.69
2023-05-10T16:43:29.847Z,17.67
2023-05-10T16:46:04.022Z,17.59
2023-05-10T16:48:33.155Z,17.61
2023-05-10T16:51:02.495Z,17.45
2023-05-10T16:53:31.158Z,17.29
2023-05-10T16:56:01.326Z,17.24
2023-05-10T16:58:30.620Z,17.27
2023-05-10T17:01:02.936Z,17.08
2023-05-10T17:03:34.235Z,16.95
2023-05-10T17:06:05.461Z,16.97
2023-05-10T17:08:34.205Z,17.00
2023-05-10T17:11:06.441Z,16.97
2023-05-10T17:13:44.140Z,16.90
2023-05-10T17:16:14.929Z,16.90
2023-05-10T17:18:46.646Z,16.87
2023-05-10T17:21:16.901Z,16.83
2023-05-10T17:23:48.591Z,16.71
2023-05-10T17:26:21.398Z,16.63
2023-05-10T17:28:51.212Z,16.57
2023-05-10T17:31:19.889Z,16.56
2023-05-10T17:33:52.248Z,16.45
2023-05-10T17:36:20.684Z,16.39
2023-05-10T17:38:49.634Z,16.26
2023-05-10T17:41:19.878Z,16.21
2023-05-10T17:43:49.588Z,16.15
2023-05-10T17:46:20.190Z,16.11
2023-05-10T17:48:51.076Z,16.02
2023-05-10T17:51:20.397Z,15.97
2023-05-10T17:53:51.970Z,15.85
2023-05-10T17:56:23.251Z,15.74
2023-05-10T17:58:52.921Z,15.71
2023-05-10T18:01:21.982Z,15.63
2023-05-10T18:03:51.852Z,15.54
2023-05-10T18:06:20.622Z,15.50
2023-05-10T18:08:52.161Z,15.47
2023-05-10T18:11:33.495Z,15.43
2023-05-10T18:14:01.851Z,15.39
2023-05-10T18:16:30.739Z,15.25
2023-05-10T18:18:59.557Z,15.16
2023-05-10T18:21:28.365Z,15.10
2023-05-10T18:23:57.361Z,14.99
2023-05-10T18:26:37.140Z,14.95
2023-05-10T18:29:07.453Z,14.89
2023-05-10T18:32:13.892Z,14.88
2023-05-10T18:34:42.951Z,14.81
2023-05-10T18:37:12.177Z,14.69
2023-05-10T18:39:41.530Z,14.60
2023-05-10T18:42:15.060Z,14.64
2023-05-10T18:44:44.045Z,14.58
2023-05-10T18:47:17.076Z,14.54
2023-05-10T18:49:46.615Z,14.52
2023-05-10T18:52:16.186Z,14.44
2023-05-10T18:54:46.004Z,14.41
2023-05-10T18:57:17.516Z,14.40
2023-05-10T18:59:52.291Z,14.40
2023-05-10T19:02:21.109Z,14.42
2023-05-10T19:04:50.941Z,14.38
2023-05-10T19:07:22.582Z,14.38
2023-05-10T19:09:53.176Z,14.44
2023-05-10T19:12:24.363Z,14.40
2023-05-10T19:14:55.302Z,14.45
2023-05-10T19:17:24.886Z,14.36
2023-05-10T19:19:56.655Z,14.38
2023-05-10T19:22:43.563Z,14.40
2023-05-10T19:25:18.541Z,14.34
2023-05-10T19:27:49.259Z,14.27
2023-05-10T19:30:18.693Z,14.26
2023-05-10T19:32:48.956Z,14.23
2023-05-10T19:35:19.736Z,14.26
2023-05-10T19:37:50.911Z,14.24
2023-05-10T19:40:19.915Z,14.27
2023-05-10T19:42:52.923Z,14.21
2023-05-10T19:45:24.049Z,14.26
2023-05-10T19:47:57.561Z,14.20
2023-05-10T19:50:26.793Z,14.21
2023-05-10T19:52:55.511Z,14.10
2023-05-10T19:55:29.193Z,14.05
2023-05-10T19:58:00.834Z,14.03
2023-05-10T20:00:32.389Z,13.95
2023-05-10T20:03:01.579Z,13.92
2023-05-10T20:05:31.146Z,13.98
2023-05-10T20:08:00.970Z,13.92
2023-05-10T20:10:31.183Z,13.90
2023-05-10T20:13:04.170Z,13.83
2023-05-10T20:15:34.160Z,13.90
2023-05-10T20:18:03.764Z,13.82
2023-05-10T20:20:32.159Z,13.86
2023-05-10T20:23:03.493Z,13.82
2023-05-10T20:25:32.291Z,13.89
2023-05-10T20:28:09.561Z,13.89
2023-05-10T20:30:44.187Z,13.76
2023-05-10T20:33:19.759Z,13.76
2023-05-10T20:35:54.593Z,13.71
2023-05-10T20:38:24.917Z,13.73
2023-05-10T20:40:59.612Z,13.68
2023-05-10T20:43:34.153Z,13.76
2023-05-10T20:46:06.608Z,13.68
2023-05-10T20:48:37.331Z,13.69
2023-05-10T20:51:09.448Z,13.63
2023-05-10T20:53:38.736Z,13.61
2023-05-10T20:56:08.977Z,13.59
2023-05-10T20:58:40.609Z,13.54
2023-05-10T21:01:10.709Z,13.51
2023-05-10T21:03:40.970Z,13.52
2023-05-10T21:06:09.391Z,13.57
2023-05-10T21:08:38.064Z,13.50
2023-05-10T21:11:08.075Z,13.44
2023-05-10T21:13:36.418Z,13.41
2023-05-10T21:16:06.710Z,13.41
2023-05-10T21:18:34.983Z,13.42
2023-05-10T21:21:06.214Z,13.41
2023-05-10T21:23:37.135Z,13.40
2023-05-10T21:26:07.611Z,13.37
2023-05-10T21:28:38.391Z,13.37
2023-05-10T21:31:11.035Z,13.30
2023-05-10T21:33:41.954Z,13.31
2023-05-10T21:36:19.056Z,13.30
2023-05-10T21:38:51.147Z,13.30
2023-05-10T21:41:21.900Z,13.28
2023-05-10T21:43:51.391Z,13.32
2023-05-10T21:46:21.885Z,13.38
2023-05-10T21:48:50.772Z,13.32
2023-05-10T21:51:19.308Z,13.34
2023-05-10T21:53:51.671Z,13.31
2023-05-10T21:56:23.265Z,13.21
2023-05-10T21:58:54.358Z,13.18
2023-05-10T22:01:27.849Z,13.14
2023-05-10T22:03:58.767Z,13.11
2023-05-10T22:06:27.103Z,13.06
2023-05-10T22:08:59.113Z,12.96
2023-05-10T22:11:30.477Z,12.90
2023-05-10T22:14:00.738Z,12.89
2023-05-10T22:16:31.084Z,12.82
2023-05-10T22:19:06.915Z,12.76
2023-05-10T22:21:37.081Z,12.76
2023-05-10T22:24:06.484Z,12.66
2023-05-10T22:26:40.507Z,12.69
2023-05-10T22:29:09.775Z,12.69
2023-05-10T22:31:43.354Z,12.66
2023-05-10T22:34:13.818Z,12.72
2023-05-10T22:36:42.622Z,12.62
2023-05-10T22:39:12.963Z,12.59
2023-05-10T22:41:41.467Z,12.53
2023-05-10T22:44:10.005Z,12.48
2023-05-10T22:46:43.292Z,12.41
2023-05-10T22:49:14.365Z,12.35
2023-05-10T22:51:46.661Z,12.34
2023-05-10T22:54:15.218Z,12.36
2023-05-10T22:56:44.899Z,12.38
2023-05-10T22:59:16.217Z,12.42
2023-05-10T23:01:47.543Z,12.46
2023-05-10T23:04:17.409Z,12.50
2023-05-10T23:06:46.782Z,12.55
2023-05-10T23:09:16.136Z,12.59
2023-05-10T23:11:44.627Z,12.60
2023-05-10T23:14:14.376Z,12.59
2023-05-10T23:16:43.162Z,12.62
2023-05-10T23:19:19.833Z,12.57
2023-05-10T23:21:49.497Z,12.63
2023-05-10T23:24:18.588Z,12.65
2023-05-10T23:26:47.424Z,12.69
2023-05-10T23:29:15.741Z,12.70
2023-05-10T23:31:46.278Z,12.69
2023-05-10T23:34:19.431Z,12.63
2023-05-10T23:36:50.737Z,12.62
2023-05-10T23:39:20.345Z,12.62
2023-05-10T23:41:50.016Z,12.63
2023-05-10T23:44:19.512Z,12.62
2023-05-10T23:46:49.093Z,12.66
2023-05-10T23:49:21.000Z,12.60
2023-05-10T23:51:52.501Z,12.60
2023-05-10T23:54:23.579Z,12.67
2023-05-10T23:56:52.155Z,12.65
2023-05-10T23:59:20.537Z,12.69
